sensor_id;sensor_type;location;lat;lon;timestamp;P1;durP1;ratioP1;P2;durP2;ratioP2
62790;SDS011;48830;53.426;10.300;2023-12-20T00:00:53;2.53;;;0.88;;
62790;SDS011;48830;53.426;10.300;2023-12-20T00:03:18;1.20;;;0.73;;
62790;SDS011;48830;53.426;10.300;2023-12-20T00:05:44;2.05;;;0.90;;
62790;SDS011;48830;53.426;10.300;2023-12-20T00:08:09;0.98;;;0.73;;
62790;SDS011;48830;53.426;10.300;2023-12-20T00:10:35;0.98;;;0.77;;
62790;SDS011;48830;53.426;10.300;2023-12-20T00:13:00;0.73;;;0.70;;
62790;SDS011;48830;53.426;10.300;2023-12-20T00:15:26;1.75;;;1.10;;
62790;SDS011;48830;53.426;10.300;2023-12-20T00:17:51;1.05;;;0.63;;
62790;SDS011;48830;53.426;10.300;2023-12-20T00:20:16;1.17;;;0.80;;
62790;SDS011;48830;53.426;10.300;2023-12-20T00:22:42;2.00;;;1.00;;
62790;SDS011;48830;53.426;10.300;2023-12-20T00:25:07;1.67;;;0.80;;
62790;SDS011;48830;53.426;10.300;2023-12-20T00:27:33;1.77;;;0.95;;
62790;SDS011;48830;53.426;10.300;2023-12-20T00:29:58;1.80;;;0.73;;
62790;SDS011;48830;53.426;10.300;2023-12-20T00:32:23;1.10;;;0.73;;
62790;SDS011;48830;53.426;10.300;2023-12-20T00:34:49;1.38;;;0.70;;
62790;SDS011;48830;53.426;10.300;2023-12-20T00:37:15;0.82;;;0.80;;
62790;SDS011;48830;53.426;10.300;2023-12-20T00:39:41;0.85;;;0.80;;
62790;SDS011;48830;53.426;10.300;2023-12-20T00:42:07;2.13;;;0.80;;
62790;SDS011;48830;53.426;10.300;2023-12-20T00:44:32;1.98;;;0.80;;
62790;SDS011;48830;53.426;10.300;2023-12-20T00:46:58;2.20;;;0.90;;
62790;SDS011;48830;53.426;10.300;2023-12-20T00:49:23;2.17;;;0.93;;
62790;SDS011;48830;53.426;10.300;2023-12-20T00:51:49;1.55;;;0.95;;
62790;SDS011;48830;53.426;10.300;2023-12-20T00:54:15;1.17;;;0.90;;
62790;SDS011;48830;53.426;10.300;2023-12-20T00:56:41;1.80;;;0.85;;
62790;SDS011;48830;53.426;10.300;2023-12-20T00:59:06;1.50;;;0.73;;
62790;SDS011;48830;53.426;10.300;2023-12-20T01:01:32;1.60;;;0.90;;
62790;SDS011;48830;53.426;10.300;2023-12-20T01:03:58;1.15;;;0.77;;
62790;SDS011;48830;53.426;10.300;2023-12-20T01:06:24;0.80;;;0.80;;
62790;SDS011;48830;53.426;10.300;2023-12-20T01:08:49;1.55;;;0.90;;
62790;SDS011;48830;53.426;10.300;2023-12-20T01:11:15;1.25;;;0.80;;
62790;SDS011;48830;53.426;10.300;2023-12-20T01:13:40;1.40;;;0.90;;
62790;SDS011;48830;53.426;10.300;2023-12-20T01:16:06;2.95;;;0.98;;
62790;SDS011;48830;53.426;10.300;2023-12-20T01:18:31;1.73;;;0.70;;
62790;SDS011;48830;53.426;10.300;2023-12-20T01:21:01;1.60;;;0.82;;
62790;SDS011;48830;53.426;10.300;2023-12-20T01:23:28;0.50;;;0.50;;
62790;SDS011;48830;53.426;10.300;2023-12-20T01:25:53;1.05;;;0.70;;
62790;SDS011;48830;53.426;10.300;2023-12-20T01:28:19;1.45;;;0.80;;
62790;SDS011;48830;53.426;10.300;2023-12-20T01:30:44;1.77;;;0.90;;
62790;SDS011;48830;53.426;10.300;2023-12-20T01:33:10;0.60;;;0.60;;
62790;SDS011;48830;53.426;10.300;2023-12-20T01:35:35;1.65;;;0.90;;
62790;SDS011;48830;53.426;10.300;2023-12-20T01:38:00;1.15;;;0.80;;
62790;SDS011;48830;53.426;10.300;2023-12-20T01:40:26;1.08;;;0.60;;
62790;SDS011;48830;53.426;10.300;2023-12-20T01:43:01;1.17;;;0.75;;
62790;SDS011;48830;53.426;10.300;2023-12-20T01:45:27;1.45;;;0.80;;
62790;SDS011;48830;53.426;10.300;2023-12-20T01:47:54;1.08;;;0.80;;
62790;SDS011;48830;53.426;10.300;2023-12-20T01:50:22;0.65;;;0.65;;
62790;SDS011;48830;53.426;10.300;2023-12-20T01:52:48;1.85;;;0.90;;
62790;SDS011;48830;53.426;10.300;2023-12-20T01:55:17;0.75;;;0.75;;
62790;SDS011;48830;53.426;10.300;2023-12-20T01:57:44;2.17;;;0.80;;
62790;SDS011;48830;53.426;10.300;2023-12-20T02:00:12;0.98;;;0.80;;
62790;SDS011;48830;53.426;10.300;2023-12-20T02:02:39;1.52;;;0.90;;
62790;SDS011;48830;53.426;10.300;2023-12-20T02:05:06;1.58;;;0.80;;
62790;SDS011;48830;53.426;10.300;2023-12-20T02:07:32;1.88;;;0.70;;
62790;SDS011;48830;53.426;10.300;2023-12-20T02:09:59;1.20;;;0.80;;
62790;SDS011;48830;53.426;10.300;2023-12-20T02:12:25;0.80;;;0.70;;
62790;SDS011;48830;53.426;10.300;2023-12-20T02:14:50;3.03;;;0.90;;
62790;SDS011;48830;53.426;10.300;2023-12-20T02:17:16;0.88;;;0.80;;
62790;SDS011;48830;53.426;10.300;2023-12-20T02:19:41;1.33;;;0.82;;
62790;SDS011;48830;53.426;10.300;2023-12-20T02:24:33;1.90;;;1.00;;
62790;SDS011;48830;53.426;10.300;2023-12-20T02:26:58;2.05;;;0.80;;
62790;SDS011;48830;53.426;10.300;2023-12-20T02:29:24;2.25;;;0.88;;
62790;SDS011;48830;53.426;10.300;2023-12-20T02:31:49;1.10;;;0.65;;
62790;SDS011;48830;53.426;10.300;2023-12-20T02:34:15;1.45;;;0.70;;
62790;SDS011;48830;53.426;10.300;2023-12-20T02:36:40;1.38;;;1.10;;
62790;SDS011;48830;53.426;10.300;2023-12-20T02:39:06;0.95;;;0.70;;
62790;SDS011;48830;53.426;10.300;2023-12-20T02:41:31;2.17;;;0.90;;
62790;SDS011;48830;53.426;10.300;2023-12-20T02:43:57;0.82;;;0.60;;
62790;SDS011;48830;53.426;10.300;2023-12-20T02:46:22;1.17;;;0.90;;
62790;SDS011;48830;53.426;10.300;2023-12-20T02:48:48;1.73;;;0.70;;
62790;SDS011;48830;53.426;10.300;2023-12-20T02:51:13;1.38;;;0.80;;
62790;SDS011;48830;53.426;10.300;2023-12-20T02:53:39;2.00;;;1.05;;
62790;SDS011;48830;53.426;10.300;2023-12-20T02:56:04;2.17;;;0.70;;
62790;SDS011;48830;53.426;10.300;2023-12-20T02:58:30;1.38;;;0.80;;
62790;SDS011;48830;53.426;10.300;2023-12-20T03:00:55;1.65;;;0.93;;
62790;SDS011;48830;53.426;10.300;2023-12-20T03:03:21;1.38;;;0.75;;
62790;SDS011;48830;53.426;10.300;2023-12-20T03:05:46;1.23;;;0.80;;
62790;SDS011;48830;53.426;10.300;2023-12-20T03:08:12;1.70;;;0.70;;
62790;SDS011;48830;53.426;10.300;2023-12-20T03:10:37;0.63;;;0.63;;
62790;SDS011;48830;53.426;10.300;2023-12-20T03:13:03;1.05;;;0.70;;
62790;SDS011;48830;53.426;10.300;2023-12-20T03:15:28;1.77;;;1.02;;
62790;SDS011;48830;53.426;10.300;2023-12-20T03:17:54;1.83;;;0.90;;
62790;SDS011;48830;53.426;10.300;2023-12-20T03:20:19;1.20;;;0.70;;
62790;SDS011;48830;53.426;10.300;2023-12-20T03:22:45;1.98;;;0.80;;
62790;SDS011;48830;53.426;10.300;2023-12-20T03:25:11;1.10;;;0.70;;
62790;SDS011;48830;53.426;10.300;2023-12-20T03:27:37;1.05;;;0.60;;
62790;SDS011;48830;53.426;10.300;2023-12-20T03:30:06;0.85;;;0.70;;
62790;SDS011;48830;53.426;10.300;2023-12-20T03:32:31;1.40;;;1.00;;
62790;SDS011;48830;53.426;10.300;2023-12-20T03:34:57;0.95;;;0.85;;
62790;SDS011;48830;53.426;10.300;2023-12-20T03:37:22;1.20;;;0.80;;
62790;SDS011;48830;53.426;10.300;2023-12-20T03:39:48;1.73;;;0.70;;
62790;SDS011;48830;53.426;10.300;2023-12-20T03:42:13;0.93;;;0.80;;
62790;SDS011;48830;53.426;10.300;2023-12-20T03:44:39;1.40;;;0.70;;
62790;SDS011;48830;53.426;10.300;2023-12-20T03:47:07;1.10;;;0.80;;
62790;SDS011;48830;53.426;10.300;2023-12-20T03:49:33;1.10;;;0.90;;
62790;SDS011;48830;53.426;10.300;2023-12-20T03:51:58;1.38;;;0.80;;
62790;SDS011;48830;53.426;10.300;2023-12-20T03:54:24;1.38;;;0.65;;
62790;SDS011;48830;53.426;10.300;2023-12-20T03:56:49;1.50;;;0.73;;
62790;SDS011;48830;53.426;10.300;2023-12-20T03:59:15;1.17;;;0.77;;
62790;SDS011;48830;53.426;10.300;2023-12-20T04:01:44;1.05;;;0.90;;
62790;SDS011;48830;53.426;10.300;2023-12-20T04:04:10;1.88;;;0.75;;
62790;SDS011;48830;53.426;10.300;2023-12-20T04:06:36;1.55;;;0.80;;
62790;SDS011;48830;53.426;10.300;2023-12-20T04:09:02;0.75;;;0.60;;
62790;SDS011;48830;53.426;10.300;2023-12-20T04:11:28;1.23;;;0.80;;
62790;SDS011;48830;53.426;10.300;2023-12-20T04:13:53;1.27;;;0.88;;
62790;SDS011;48830;53.426;10.300;2023-12-20T04:16:19;0.70;;;0.70;;
62790;SDS011;48830;53.426;10.300;2023-12-20T04:18:44;0.70;;;0.70;;
62790;SDS011;48830;53.426;10.300;2023-12-20T04:21:10;3.58;;;1.50;;
62790;SDS011;48830;53.426;10.300;2023-12-20T04:23:35;1.25;;;0.65;;
62790;SDS011;48830;53.426;10.300;2023-12-20T04:26:01;2.50;;;0.93;;
62790;SDS011;48830;53.426;10.300;2023-12-20T04:28:26;1.90;;;0.70;;
62790;SDS011;48830;53.426;10.300;2023-12-20T04:30:55;1.08;;;0.77;;
62790;SDS011;48830;53.426;10.300;2023-12-20T04:33:21;3.65;;;0.80;;
62790;SDS011;48830;53.426;10.300;2023-12-20T04:35:47;0.88;;;0.68;;
62790;SDS011;48830;53.426;10.300;2023-12-20T04:38:12;3.28;;;0.90;;
62790;SDS011;48830;53.426;10.300;2023-12-20T04:40:37;1.35;;;0.60;;
62790;SDS011;48830;53.426;10.300;2023-12-20T04:43:04;2.95;;;0.70;;
62790;SDS011;48830;53.426;10.300;2023-12-20T04:45:29;1.92;;;0.75;;
62790;SDS011;48830;53.426;10.300;2023-12-20T04:47:55;0.90;;;0.65;;
62790;SDS011;48830;53.426;10.300;2023-12-20T04:50:20;2.78;;;0.98;;
62790;SDS011;48830;53.426;10.300;2023-12-20T04:52:46;1.35;;;0.65;;
62790;SDS011;48830;53.426;10.300;2023-12-20T04:55:12;1.35;;;0.73;;
62790;SDS011;48830;53.426;10.300;2023-12-20T04:57:37;1.23;;;0.80;;
62790;SDS011;48830;53.426;10.300;2023-12-20T05:00:03;1.77;;;0.82;;
62790;SDS011;48830;53.426;10.300;2023-12-20T05:02:29;1.40;;;0.75;;
62790;SDS011;48830;53.426;10.300;2023-12-20T05:04:55;0.65;;;0.60;;
62790;SDS011;48830;53.426;10.300;2023-12-20T05:07:20;1.65;;;0.60;;
62790;SDS011;48830;53.426;10.300;2023-12-20T05:09:46;1.42;;;0.90;;
62790;SDS011;48830;53.426;10.300;2023-12-20T05:12:11;1.30;;;0.80;;
62790;SDS011;48830;53.426;10.300;2023-12-20T05:14:36;1.30;;;0.73;;
62790;SDS011;48830;53.426;10.300;2023-12-20T05:17:02;1.60;;;1.00;;
62790;SDS011;48830;53.426;10.300;2023-12-20T05:19:28;0.85;;;0.50;;
62790;SDS011;48830;53.426;10.300;2023-12-20T05:21:53;2.08;;;0.80;;
62790;SDS011;48830;53.426;10.300;2023-12-20T05:24:19;2.22;;;0.70;;
62790;SDS011;48830;53.426;10.300;2023-12-20T05:26:44;0.60;;;0.60;;
62790;SDS011;48830;53.426;10.300;2023-12-20T05:29:10;1.45;;;0.70;;
62790;SDS011;48830;53.426;10.300;2023-12-20T05:31:35;1.67;;;0.73;;
62790;SDS011;48830;53.426;10.300;2023-12-20T05:34:01;1.48;;;0.80;;
62790;SDS011;48830;53.426;10.300;2023-12-20T05:36:26;0.93;;;0.73;;
62790;SDS011;48830;53.426;10.300;2023-12-20T05:38:52;1.33;;;0.80;;
62790;SDS011;48830;53.426;10.300;2023-12-20T05:41:18;1.17;;;0.65;;
62790;SDS011;48830;53.426;10.300;2023-12-20T05:43:43;0.85;;;0.70;;
62790;SDS011;48830;53.426;10.300;2023-12-20T05:46:12;1.17;;;1.00;;
62790;SDS011;48830;53.426;10.300;2023-12-20T05:48:38;1.20;;;0.70;;
62790;SDS011;48830;53.426;10.300;2023-12-20T05:51:03;1.40;;;0.70;;
62790;SDS011;48830;53.426;10.300;2023-12-20T05:53:29;1.77;;;0.80;;
62790;SDS011;48830;53.426;10.300;2023-12-20T05:55:54;2.13;;;0.60;;
62790;SDS011;48830;53.426;10.300;2023-12-20T05:58:20;0.70;;;0.70;;
62790;SDS011;48830;53.426;10.300;2023-12-20T06:00:45;1.35;;;0.57;;
62790;SDS011;48830;53.426;10.300;2023-12-20T06:03:10;1.52;;;0.70;;
62790;SDS011;48830;53.426;10.300;2023-12-20T06:05:36;0.77;;;0.65;;
62790;SDS011;48830;53.426;10.300;2023-12-20T06:08:01;2.22;;;0.80;;
62790;SDS011;48830;53.426;10.300;2023-12-20T06:10:28;1.60;;;0.90;;
62790;SDS011;48830;53.426;10.300;2023-12-20T06:12:54;1.00;;;0.68;;
62790;SDS011;48830;53.426;10.300;2023-12-20T06:15:20;1.73;;;0.70;;
62790;SDS011;48830;53.426;10.300;2023-12-20T06:17:45;1.52;;;0.68;;
62790;SDS011;48830;53.426;10.300;2023-12-20T06:20:12;0.77;;;0.70;;
62790;SDS011;48830;53.426;10.300;2023-12-20T06:22:38;0.98;;;0.80;;
62790;SDS011;48830;53.426;10.300;2023-12-20T06:25:04;1.10;;;0.60;;
62790;SDS011;48830;53.426;10.300;2023-12-20T06:27:30;1.90;;;0.65;;
62790;SDS011;48830;53.426;10.300;2023-12-20T06:29:57;0.90;;;0.65;;
62790;SDS011;48830;53.426;10.300;2023-12-20T06:32:23;1.52;;;0.70;;
62790;SDS011;48830;53.426;10.300;2023-12-20T06:34:49;1.13;;;0.80;;
62790;SDS011;48830;53.426;10.300;2023-12-20T06:37:15;0.82;;;0.70;;
62790;SDS011;48830;53.426;10.300;2023-12-20T06:39:40;1.48;;;1.35;;
62790;SDS011;48830;53.426;10.300;2023-12-20T06:42:06;2.38;;;0.80;;
62790;SDS011;48830;53.426;10.300;2023-12-20T06:44:31;1.33;;;0.70;;
62790;SDS011;48830;53.426;10.300;2023-12-20T06:46:57;1.27;;;0.73;;
62790;SDS011;48830;53.426;10.300;2023-12-20T06:49:23;1.17;;;0.68;;
62790;SDS011;48830;53.426;10.300;2023-12-20T06:51:48;0.75;;;0.75;;
62790;SDS011;48830;53.426;10.300;2023-12-20T06:54:14;1.48;;;0.80;;
62790;SDS011;48830;53.426;10.300;2023-12-20T06:56:39;0.60;;;0.60;;
62790;SDS011;48830;53.426;10.300;2023-12-20T06:59:06;0.70;;;0.63;;
62790;SDS011;48830;53.426;10.300;2023-12-20T07:01:31;1.10;;;0.70;;
62790;SDS011;48830;53.426;10.300;2023-12-20T07:03:57;1.65;;;0.82;;
62790;SDS011;48830;53.426;10.300;2023-12-20T07:06:22;0.70;;;0.60;;
62790;SDS011;48830;53.426;10.300;2023-12-20T07:08:48;1.83;;;0.90;;
62790;SDS011;48830;53.426;10.300;2023-12-20T07:11:13;0.82;;;0.70;;
62790;SDS011;48830;53.426;10.300;2023-12-20T07:13:39;1.48;;;0.73;;
62790;SDS011;48830;53.426;10.300;2023-12-20T07:16:04;1.25;;;0.70;;
62790;SDS011;48830;53.426;10.300;2023-12-20T07:18:30;1.77;;;1.00;;
62790;SDS011;48830;53.426;10.300;2023-12-20T07:20:55;1.13;;;0.70;;
62790;SDS011;48830;53.426;10.300;2023-12-20T07:23:21;3.20;;;0.90;;
62790;SDS011;48830;53.426;10.300;2023-12-20T07:25:46;1.88;;;0.60;;
62790;SDS011;48830;53.426;10.300;2023-12-20T07:28:12;2.03;;;0.90;;
62790;SDS011;48830;53.426;10.300;2023-12-20T07:30:37;1.67;;;0.80;;
62790;SDS011;48830;53.426;10.300;2023-12-20T07:33:04;1.38;;;0.60;;
62790;SDS011;48830;53.426;10.300;2023-12-20T07:35:30;1.48;;;0.60;;
62790;SDS011;48830;53.426;10.300;2023-12-20T07:37:55;2.28;;;1.00;;
62790;SDS011;48830;53.426;10.300;2023-12-20T07:40:21;0.93;;;0.70;;
62790;SDS011;48830;53.426;10.300;2023-12-20T07:42:46;2.42;;;0.88;;
62790;SDS011;48830;53.426;10.300;2023-12-20T07:45:12;0.70;;;0.70;;
62790;SDS011;48830;53.426;10.300;2023-12-20T07:47:37;0.77;;;0.60;;
62790;SDS011;48830;53.426;10.300;2023-12-20T07:50:03;1.77;;;0.75;;
62790;SDS011;48830;53.426;10.300;2023-12-20T07:52:29;1.25;;;0.80;;
62790;SDS011;48830;53.426;10.300;2023-12-20T07:54:54;1.27;;;0.70;;
62790;SDS011;48830;53.426;10.300;2023-12-20T07:57:20;0.95;;;0.80;;
62790;SDS011;48830;53.426;10.300;2023-12-20T07:59:46;3.13;;;1.00;;
62790;SDS011;48830;53.426;10.300;2023-12-20T08:02:12;1.48;;;1.00;;
62790;SDS011;48830;53.426;10.300;2023-12-20T08:04:37;1.58;;;1.00;;
62790;SDS011;48830;53.426;10.300;2023-12-20T08:07:03;2.53;;;0.90;;
62790;SDS011;48830;53.426;10.300;2023-12-20T08:09:29;2.35;;;1.20;;
62790;SDS011;48830;53.426;10.300;2023-12-20T08:11:54;3.55;;;1.30;;
62790;SDS011;48830;53.426;10.300;2023-12-20T08:14:20;5.95;;;1.55;;
62790;SDS011;48830;53.426;10.300;2023-12-20T08:16:46;9.20;;;1.90;;
62790;SDS011;48830;53.426;10.300;2023-12-20T08:19:12;6.55;;;1.90;;
62790;SDS011;48830;53.426;10.300;2023-12-20T08:21:38;6.63;;;1.95;;
62790;SDS011;48830;53.426;10.300;2023-12-20T08:24:04;8.00;;;1.80;;
62790;SDS011;48830;53.426;10.300;2023-12-20T08:26:30;6.55;;;1.83;;
62790;SDS011;48830;53.426;10.300;2023-12-20T08:28:55;6.97;;;1.60;;
62790;SDS011;48830;53.426;10.300;2023-12-20T08:31:20;5.55;;;1.75;;
62790;SDS011;48830;53.426;10.300;2023-12-20T08:33:47;8.60;;;2.03;;
62790;SDS011;48830;53.426;10.300;2023-12-20T08:36:13;6.28;;;1.48;;
62790;SDS011;48830;53.426;10.300;2023-12-20T08:38:39;6.70;;;1.98;;
62790;SDS011;48830;53.426;10.300;2023-12-20T08:41:04;7.47;;;1.80;;
62790;SDS011;48830;53.426;10.300;2023-12-20T08:43:30;6.57;;;1.85;;
62790;SDS011;48830;53.426;10.300;2023-12-20T08:45:56;6.00;;;1.73;;
62790;SDS011;48830;53.426;10.300;2023-12-20T08:48:22;7.35;;;2.58;;
62790;SDS011;48830;53.426;10.300;2023-12-20T08:50:47;7.03;;;2.55;;
62790;SDS011;48830;53.426;10.300;2023-12-20T08:53:15;6.03;;;1.60;;
62790;SDS011;48830;53.426;10.300;2023-12-20T08:55:41;7.45;;;1.88;;
62790;SDS011;48830;53.426;10.300;2023-12-20T08:58:07;6.43;;;1.67;;
62790;SDS011;48830;53.426;10.300;2023-12-20T09:00:33;5.95;;;1.90;;
62790;SDS011;48830;53.426;10.300;2023-12-20T09:02:59;6.35;;;1.88;;
62790;SDS011;48830;53.426;10.300;2023-12-20T09:05:25;6.88;;;1.60;;
62790;SDS011;48830;53.426;10.300;2023-12-20T09:07:50;6.25;;;1.88;;
62790;SDS011;48830;53.426;10.300;2023-12-20T09:10:16;6.82;;;1.73;;
62790;SDS011;48830;53.426;10.300;2023-12-20T09:12:47;6.60;;;1.77;;
62790;SDS011;48830;53.426;10.300;2023-12-20T09:15:12;8.18;;;2.30;;
62790;SDS011;48830;53.426;10.300;2023-12-20T09:17:38;7.18;;;1.80;;
62790;SDS011;48830;53.426;10.300;2023-12-20T09:20:04;5.63;;;1.60;;
62790;SDS011;48830;53.426;10.300;2023-12-20T09:22:32;7.40;;;2.38;;
62790;SDS011;48830;53.426;10.300;2023-12-20T09:24:57;6.63;;;1.90;;
62790;SDS011;48830;53.426;10.300;2023-12-20T09:27:23;5.97;;;1.45;;
62790;SDS011;48830;53.426;10.300;2023-12-20T09:29:48;6.00;;;1.67;;
62790;SDS011;48830;53.426;10.300;2023-12-20T09:32:14;4.80;;;1.67;;
62790;SDS011;48830;53.426;10.300;2023-12-20T09:34:40;7.38;;;1.83;;
62790;SDS011;48830;53.426;10.300;2023-12-20T09:37:07;6.63;;;1.80;;
62790;SDS011;48830;53.426;10.300;2023-12-20T09:39:32;6.53;;;1.80;;
62790;SDS011;48830;53.426;10.300;2023-12-20T09:42:00;6.25;;;1.83;;
62790;SDS011;48830;53.426;10.300;2023-12-20T09:44:28;6.05;;;1.73;;
62790;SDS011;48830;53.426;10.300;2023-12-20T09:46:54;3.65;;;1.40;;
62790;SDS011;48830;53.426;10.300;2023-12-20T09:49:21;4.85;;;1.50;;
62790;SDS011;48830;53.426;10.300;2023-12-20T09:51:47;4.70;;;1.55;;
62790;SDS011;48830;53.426;10.300;2023-12-20T09:54:19;8.20;;;2.40;;
62790;SDS011;48830;53.426;10.300;2023-12-20T09:56:46;4.80;;;1.45;;
62790;SDS011;48830;53.426;10.300;2023-12-20T09:59:12;5.95;;;1.40;;
62790;SDS011;48830;53.426;10.300;2023-12-20T10:01:42;6.88;;;1.88;;
62790;SDS011;48830;53.426;10.300;2023-12-20T10:04:09;6.43;;;1.60;;
62790;SDS011;48830;53.426;10.300;2023-12-20T10:06:40;3.80;;;1.23;;
62790;SDS011;48830;53.426;10.300;2023-12-20T10:09:07;4.57;;;1.48;;
62790;SDS011;48830;53.426;10.300;2023-12-20T10:11:35;6.10;;;1.63;;
62790;SDS011;48830;53.426;10.300;2023-12-20T10:14:02;4.47;;;1.65;;
62790;SDS011;48830;53.426;10.300;2023-12-20T10:16:29;4.20;;;1.55;;
62790;SDS011;48830;53.426;10.300;2023-12-20T10:18:55;4.88;;;1.88;;
62790;SDS011;48830;53.426;10.300;2023-12-20T10:21:24;5.22;;;1.63;;
62790;SDS011;48830;53.426;10.300;2023-12-20T10:23:56;7.00;;;1.95;;
62790;SDS011;48830;53.426;10.300;2023-12-20T10:26:23;5.38;;;1.70;;
62790;SDS011;48830;53.426;10.300;2023-12-20T10:28:53;4.65;;;1.50;;
62790;SDS011;48830;53.426;10.300;2023-12-20T10:31:30;4.47;;;1.35;;
62790;SDS011;48830;53.426;10.300;2023-12-20T10:33:57;2.88;;;1.27;;
62790;SDS011;48830;53.426;10.300;2023-12-20T10:36:24;4.10;;;1.27;;
62790;SDS011;48830;53.426;10.300;2023-12-20T10:38:52;2.50;;;1.30;;
62790;SDS011;48830;53.426;10.300;2023-12-20T10:44:03;2.97;;;1.30;;
62790;SDS011;48830;53.426;10.300;2023-12-20T10:46:33;3.72;;;1.30;;
62790;SDS011;48830;53.426;10.300;2023-12-20T10:48:59;3.05;;;1.35;;
62790;SDS011;48830;53.426;10.300;2023-12-20T10:51:27;3.42;;;1.48;;
62790;SDS011;48830;53.426;10.300;2023-12-20T10:53:55;3.83;;;1.33;;
62790;SDS011;48830;53.426;10.300;2023-12-20T10:56:21;3.15;;;1.15;;
62790;SDS011;48830;53.426;10.300;2023-12-20T10:58:48;4.22;;;1.20;;
62790;SDS011;48830;53.426;10.300;2023-12-20T11:01:15;5.35;;;2.13;;
62790;SDS011;48830;53.426;10.300;2023-12-20T11:03:51;3.10;;;1.23;;
62790;SDS011;48830;53.426;10.300;2023-12-20T11:12:07;3.47;;;1.30;;
62790;SDS011;48830;53.426;10.300;2023-12-20T11:17:07;2.63;;;1.23;;
62790;SDS011;48830;53.426;10.300;2023-12-20T11:20:16;3.25;;;1.30;;
62790;SDS011;48830;53.426;10.300;2023-12-20T11:22:27;4.07;;;1.17;;
62790;SDS011;48830;53.426;10.300;2023-12-20T11:25:09;1.98;;;1.00;;
62790;SDS011;48830;53.426;10.300;2023-12-20T11:27:36;2.47;;;0.90;;
62790;SDS011;48830;53.426;10.300;2023-12-20T11:30:06;2.28;;;1.10;;
62790;SDS011;48830;53.426;10.300;2023-12-20T11:32:33;1.83;;;0.90;;
62790;SDS011;48830;53.426;10.300;2023-12-20T11:37:36;2.45;;;1.40;;
62790;SDS011;48830;53.426;10.300;2023-12-20T11:40:03;3.42;;;1.00;;
62790;SDS011;48830;53.426;10.300;2023-12-20T11:42:37;3.53;;;1.20;;
62790;SDS011;48830;53.426;10.300;2023-12-20T11:45:04;3.80;;;1.52;;
62790;SDS011;48830;53.426;10.300;2023-12-20T11:47:30;2.92;;;1.15;;
62790;SDS011;48830;53.426;10.300;2023-12-20T11:49:57;2.53;;;1.05;;
62790;SDS011;48830;53.426;10.300;2023-12-20T11:52:22;2.67;;;1.00;;
62790;SDS011;48830;53.426;10.300;2023-12-20T11:54:48;2.25;;;1.08;;
62790;SDS011;48830;53.426;10.300;2023-12-20T11:57:13;2.22;;;1.13;;
62790;SDS011;48830;53.426;10.300;2023-12-20T11:59:39;3.15;;;1.20;;
62790;SDS011;48830;53.426;10.300;2023-12-20T12:02:05;2.38;;;1.00;;
62790;SDS011;48830;53.426;10.300;2023-12-20T12:04:30;2.15;;;0.80;;
62790;SDS011;48830;53.426;10.300;2023-12-20T12:06:56;3.83;;;1.13;;
62790;SDS011;48830;53.426;10.300;2023-12-20T12:09:21;2.45;;;1.33;;
62790;SDS011;48830;53.426;10.300;2023-12-20T12:11:47;2.58;;;1.08;;
62790;SDS011;48830;53.426;10.300;2023-12-20T12:14:13;2.47;;;1.20;;
62790;SDS011;48830;53.426;10.300;2023-12-20T12:16:39;3.38;;;1.08;;
62790;SDS011;48830;53.426;10.300;2023-12-20T12:19:06;3.33;;;1.13;;
62790;SDS011;48830;53.426;10.300;2023-12-20T12:21:32;3.03;;;1.10;;
62790;SDS011;48830;53.426;10.300;2023-12-20T12:24:07;2.70;;;1.13;;
62790;SDS011;48830;53.426;10.300;2023-12-20T12:26:33;2.90;;;1.00;;
62790;SDS011;48830;53.426;10.300;2023-12-20T12:28:59;3.80;;;1.20;;
62790;SDS011;48830;53.426;10.300;2023-12-20T12:31:25;1.65;;;0.90;;
62790;SDS011;48830;53.426;10.300;2023-12-20T12:33:51;3.55;;;1.13;;
62790;SDS011;48830;53.426;10.300;2023-12-20T12:36:17;2.45;;;0.90;;
62790;SDS011;48830;53.426;10.300;2023-12-20T12:38:43;2.38;;;1.10;;
62790;SDS011;48830;53.426;10.300;2023-12-20T12:41:09;2.72;;;1.10;;
62790;SDS011;48830;53.426;10.300;2023-12-20T12:43:35;2.50;;;1.10;;
62790;SDS011;48830;53.426;10.300;2023-12-20T12:46:01;2.35;;;1.08;;
62790;SDS011;48830;53.426;10.300;2023-12-20T12:48:27;2.20;;;1.17;;
62790;SDS011;48830;53.426;10.300;2023-12-20T12:50:53;3.58;;;1.13;;
62790;SDS011;48830;53.426;10.300;2023-12-20T12:53:19;2.95;;;0.93;;
62790;SDS011;48830;53.426;10.300;2023-12-20T12:55:45;2.67;;;1.10;;
62790;SDS011;48830;53.426;10.300;2023-12-20T12:58:11;3.53;;;1.38;;
62790;SDS011;48830;53.426;10.300;2023-12-20T13:00:37;4.10;;;1.27;;
62790;SDS011;48830;53.426;10.300;2023-12-20T13:03:02;3.70;;;1.33;;
62790;SDS011;48830;53.426;10.300;2023-12-20T13:05:29;2.63;;;1.00;;
62790;SDS011;48830;53.426;10.300;2023-12-20T13:07:55;5.25;;;1.10;;
62790;SDS011;48830;53.426;10.300;2023-12-20T13:10:20;2.13;;;0.90;;
62790;SDS011;48830;53.426;10.300;2023-12-20T13:12:46;2.85;;;1.13;;
62790;SDS011;48830;53.426;10.300;2023-12-20T13:15:11;4.13;;;1.40;;
62790;SDS011;48830;53.426;10.300;2023-12-20T13:17:37;2.15;;;0.98;;
62790;SDS011;48830;53.426;10.300;2023-12-20T13:20:03;3.08;;;1.00;;
62790;SDS011;48830;53.426;10.300;2023-12-20T13:22:29;1.73;;;1.00;;
62790;SDS011;48830;53.426;10.300;2023-12-20T13:24:54;1.75;;;0.90;;
62790;SDS011;48830;53.426;10.300;2023-12-20T13:27:19;2.70;;;1.00;;
62790;SDS011;48830;53.426;10.300;2023-12-20T13:29:45;2.05;;;1.00;;
62790;SDS011;48830;53.426;10.300;2023-12-20T13:32:10;3.67;;;1.20;;
62790;SDS011;48830;53.426;10.300;2023-12-20T13:34:36;2.22;;;1.00;;
62790;SDS011;48830;53.426;10.300;2023-12-20T13:37:01;2.45;;;0.90;;
62790;SDS011;48830;53.426;10.300;2023-12-20T13:39:28;3.05;;;1.08;;
62790;SDS011;48830;53.426;10.300;2023-12-20T13:41:53;1.88;;;1.02;;
62790;SDS011;48830;53.426;10.300;2023-12-20T13:44:19;2.22;;;0.93;;
62790;SDS011;48830;53.426;10.300;2023-12-20T13:46:44;1.92;;;0.90;;
62790;SDS011;48830;53.426;10.300;2023-12-20T13:49:11;1.48;;;1.08;;
62790;SDS011;48830;53.426;10.300;2023-12-20T13:51:37;1.38;;;0.90;;
62790;SDS011;48830;53.426;10.300;2023-12-20T13:54:03;2.03;;;1.00;;
62790;SDS011;48830;53.426;10.300;2023-12-20T13:56:29;2.90;;;1.17;;
62790;SDS011;48830;53.426;10.300;2023-12-20T13:58:54;2.08;;;1.02;;
62790;SDS011;48830;53.426;10.300;2023-12-20T14:01:20;1.45;;;0.80;;
62790;SDS011;48830;53.426;10.300;2023-12-20T14:03:45;3.33;;;0.98;;
62790;SDS011;48830;53.426;10.300;2023-12-20T14:06:10;2.60;;;1.05;;
62790;SDS011;48830;53.426;10.300;2023-12-20T14:08:36;2.72;;;1.00;;
62790;SDS011;48830;53.426;10.300;2023-12-20T14:11:02;3.45;;;1.25;;
62790;SDS011;48830;53.426;10.300;2023-12-20T14:13:28;3.47;;;1.02;;
62790;SDS011;48830;53.426;10.300;2023-12-20T14:15:53;1.92;;;0.95;;
62790;SDS011;48830;53.426;10.300;2023-12-20T14:18:19;2.10;;;0.98;;
62790;SDS011;48830;53.426;10.300;2023-12-20T14:20:45;2.63;;;1.05;;
62790;SDS011;48830;53.426;10.300;2023-12-20T14:23:12;2.17;;;1.00;;
62790;SDS011;48830;53.426;10.300;2023-12-20T14:25:39;2.70;;;1.13;;
62790;SDS011;48830;53.426;10.300;2023-12-20T14:28:06;2.78;;;1.05;;
62790;SDS011;48830;53.426;10.300;2023-12-20T14:30:31;2.95;;;1.10;;
62790;SDS011;48830;53.426;10.300;2023-12-20T14:32:57;2.25;;;0.95;;
62790;SDS011;48830;53.426;10.300;2023-12-20T14:35:23;2.42;;;1.10;;
62790;SDS011;48830;53.426;10.300;2023-12-20T14:37:49;2.30;;;1.10;;
62790;SDS011;48830;53.426;10.300;2023-12-20T14:40:15;3.70;;;1.00;;
62790;SDS011;48830;53.426;10.300;2023-12-20T14:42:42;2.40;;;1.00;;